createdAt,value
2022-09-10T00:00:57.989Z,25.89
2022-09-10T00:01:57.921Z,26.59
2022-09-10T00:02:57.809Z,25.94
2022-09-10T00:03:57.530Z,26.64
2022-09-10T00:04:57.490Z,26.53
2022-09-10T00:05:57.484Z,26.69
2022-09-10T00:06:57.488Z,26.59
2022-09-10T00:07:57.553Z,26.53
2022-09-10T00:08:57.470Z,26.69
2022-09-10T00:09:57.449Z,26.75
2022-09-10T00:10:57.428Z,26.37
2022-09-10T00:11:57.447Z,26.64
2022-09-10T00:12:57.407Z,26.48
2022-09-10T00:13:57.398Z,26.43
2022-09-10T00:14:57.361Z,26.64
2022-09-10T00:15:57.423Z,26.59
2022-09-10T00:16:57.360Z,26.75
2022-09-10T00:17:57.356Z,26.48
2022-09-10T00:18:57.338Z,26.32
2022-09-10T00:19:57.346Z,26.59
2022-09-10T00:20:57.283Z,26.37
2022-09-10T00:21:57.332Z,26.43
2022-09-10T00:22:57.320Z,26.69
2022-09-10T00:23:57.259Z,26.64
2022-09-10T00:24:57.234Z,26.53
2022-09-10T00:25:57.224Z,26.59
2022-09-10T00:26:58.184Z,26.59
2022-09-10T00:27:57.456Z,26.37
2022-09-10T00:28:57.268Z,26.00
2022-09-10T00:29:57.239Z,26.59
2022-09-10T00:30:57.449Z,26.48
2022-09-10T00:31:57.167Z,26.69
2022-09-10T00:32:57.173Z,26.48
2022-09-10T00:33:57.138Z,26.48
2022-09-10T00:34:57.166Z,26.48
2022-09-10T00:35:57.096Z,26.53
2022-09-10T00:36:57.076Z,26.43
2022-09-10T00:37:57.642Z,25.94
2022-09-10T00:38:57.072Z,26.59
2022-09-10T00:39:57.096Z,26.64
2022-09-10T00:40:57.042Z,26.43
2022-09-10T00:41:57.114Z,26.43
2022-09-10T00:42:57.241Z,26.00
2022-09-10T00:43:57.064Z,26.64
2022-09-10T00:44:57.764Z,26.53
2022-09-10T00:45:57.088Z,26.32
2022-09-10T00:46:57.027Z,26.59
2022-09-10T00:47:57.004Z,26.43
2022-09-10T00:48:56.971Z,26.53
2022-09-10T00:49:56.994Z,26.43
2022-09-10T00:50:56.947Z,26.69
2022-09-10T00:51:56.996Z,26.43
2022-09-10T00:52:56.886Z,26.64
2022-09-10T00:53:56.879Z,26.59
2022-09-10T00:54:56.859Z,26.32
2022-09-10T00:55:56.874Z,26.64
2022-09-10T00:56:56.837Z,26.59
2022-09-10T00:57:56.830Z,26.69
2022-09-10T00:58:56.803Z,26.48
2022-09-10T00:59:56.809Z,25.89
2022-09-10T01:00:56.843Z,26.53
2022-09-10T01:01:56.804Z,26.48
2022-09-10T01:02:56.739Z,26.64
2022-09-10T01:03:56.752Z,25.94
2022-09-10T01:04:56.735Z,26.32
2022-09-10T01:05:56.704Z,26.53
2022-09-10T01:06:56.729Z,26.00
2022-09-10T01:07:56.707Z,26.59
2022-09-10T01:08:56.677Z,26.59
2022-09-10T01:09:56.673Z,26.64
2022-09-10T01:10:56.640Z,26.59
2022-09-10T01:11:56.645Z,26.53
2022-09-10T01:12:56.669Z,26.37
2022-09-10T01:13:56.631Z,26.53
2022-09-10T01:14:56.609Z,26.59
2022-09-10T01:15:56.654Z,25.73
2022-09-10T01:16:56.570Z,26.69
2022-09-10T01:17:56.554Z,26.43
2022-09-10T01:18:56.559Z,26.37
2022-09-10T01:19:56.553Z,26.43
2022-09-10T01:20:56.528Z,26.69
2022-09-10T01:21:56.514Z,26.48
2022-09-10T01:22:56.484Z,26.43
2022-09-10T01:23:56.491Z,26.59
2022-09-10T01:24:56.470Z,26.48
2022-09-10T01:25:56.450Z,26.48
2022-09-10T01:26:56.474Z,26.53
2022-09-10T01:27:56.435Z,26.26
2022-09-10T01:28:56.417Z,26.37
2022-09-10T01:29:56.411Z,26.26
2022-09-10T01:30:56.406Z,26.32
2022-09-10T01:31:56.394Z,26.48
2022-09-10T01:32:56.366Z,26.43
2022-09-10T01:33:56.368Z,26.05
2022-09-10T01:34:56.324Z,25.83
2022-09-10T01:35:56.345Z,26.59
2022-09-10T01:36:56.301Z,26.43
2022-09-10T01:37:56.300Z,26.69
2022-09-10T01:38:56.308Z,26.64
2022-09-10T01:39:56.331Z,26.37
2022-09-10T01:40:56.280Z,26.59
2022-09-10T01:41:56.259Z,26.64
2022-09-10T01:42:56.247Z,26.69
2022-09-10T01:43:56.264Z,26.43
2022-09-10T01:44:56.204Z,25.94
2022-09-10T01:45:56.256Z,26.37
2022-09-10T01:46:56.201Z,26.37
2022-09-10T01:47:56.188Z,26.59
2022-09-10T01:48:56.147Z,26.37
2022-09-10T01:49:56.166Z,26.59
2022-09-10T01:50:56.137Z,26.53
2022-09-10T01:51:56.145Z,26.37
2022-09-10T01:52:56.151Z,26.37
2022-09-10T01:53:56.103Z,26.59
2022-09-10T01:54:56.089Z,26.48
2022-09-10T01:55:56.080Z,26.48
2022-09-10T01:56:56.091Z,26.75
2022-09-10T01:57:56.033Z,26.43
2022-09-10T01:58:56.032Z,26.37
2022-09-10T01:59:56.017Z,26.37
2022-09-10T02:00:56.049Z,26.75
2022-09-10T02:01:56.065Z,26.37
2022-09-10T02:02:55.993Z,26.48
2022-09-10T02:03:55.961Z,25.89
2022-09-10T02:04:55.943Z,26.53
2022-09-10T02:05:55.979Z,26.59
2022-09-10T02:06:55.916Z,26.48
2022-09-10T02:07:55.935Z,26.75
2022-09-10T02:08:55.938Z,26.64
2022-09-10T02:09:55.889Z,26.16
2022-09-10T02:10:55.859Z,26.43
2022-09-10T02:11:55.861Z,26.26
2022-09-10T02:12:55.856Z,26.59
2022-09-10T02:13:55.841Z,26.64
2022-09-10T02:14:55.819Z,26.37
2022-09-10T02:15:55.798Z,26.48
2022-09-10T02:16:55.786Z,26.75
2022-09-10T02:17:55.799Z,26.53
2022-09-10T02:18:55.771Z,26.69
2022-09-10T02:19:55.775Z,26.43
2022-09-10T02:20:55.731Z,26.43
2022-09-10T02:21:55.743Z,26.53
2022-09-10T02:22:55.700Z,26.53
2022-09-10T02:23:55.728Z,26.64
2022-09-10T02:24:55.688Z,25.83
2022-09-10T02:25:55.665Z,26.53
2022-09-10T02:26:55.650Z,26.48
2022-09-10T02:27:55.629Z,26.53
2022-09-10T02:28:55.635Z,26.69
2022-09-10T02:29:55.630Z,26.43
2022-09-10T02:30:55.596Z,26.53
2022-09-10T02:31:55.584Z,26.37
2022-09-10T02:32:55.601Z,26.64
2022-09-10T02:33:55.557Z,26.37
2022-09-10T02:34:55.581Z,26.64
2022-09-10T02:35:55.555Z,26.43
2022-09-10T02:36:55.550Z,26.32
2022-09-10T02:37:55.513Z,26.43
2022-09-10T02:38:55.510Z,26.48
2022-09-10T02:39:55.566Z,25.67
2022-09-10T02:40:55.465Z,26.37
2022-09-10T02:41:55.476Z,26.48
2022-09-10T02:42:55.464Z,26.59
2022-09-10T02:43:55.428Z,26.37
2022-09-10T02:44:55.431Z,25.83
2022-09-10T02:45:55.430Z,25.83
2022-09-10T02:46:55.434Z,26.64
2022-09-10T02:47:55.383Z,26.69
2022-09-10T02:48:55.377Z,26.64
2022-09-10T02:49:55.364Z,25.83
2022-09-10T02:50:55.352Z,25.94
2022-09-10T02:51:55.332Z,26.53
2022-09-10T02:52:55.338Z,26.59
2022-09-10T02:53:55.302Z,26.59
2022-09-10T02:54:55.292Z,26.69
2022-09-10T02:55:55.260Z,26.53
2022-09-10T02:56:55.304Z,25.78
2022-09-10T02:57:55.266Z,26.32
2022-09-10T02:58:55.228Z,26.37
2022-09-10T02:59:55.225Z,26.59
2022-09-10T03:00:55.280Z,26.37
2022-09-10T03:01:55.217Z,26.64
2022-09-10T03:02:56.872Z,26.69
2022-09-10T03:03:55.162Z,26.43
2022-09-10T03:04:55.177Z,26.37
2022-09-10T03:05:55.167Z,26.53
2022-09-10T03:06:55.137Z,26.59
2022-09-10T03:07:55.181Z,26.37
2022-09-10T03:08:55.117Z,26.53
2022-09-10T03:09:55.108Z,26.00
2022-09-10T03:10:55.063Z,26.64
2022-09-10T03:11:55.074Z,26.53
2022-09-10T03:12:55.066Z,26.69
2022-09-10T03:13:55.041Z,26.43
2022-09-10T03:14:55.034Z,26.64
2022-09-10T03:15:55.026Z,26.59
2022-09-10T03:16:55.025Z,26.53
2022-09-10T03:17:54.973Z,26.37
2022-09-10T03:18:54.979Z,26.53
2022-09-10T03:19:54.957Z,25.83
2022-09-10T03:20:54.937Z,26.64
2022-09-10T03:21:54.931Z,26.32
2022-09-10T03:22:54.936Z,26.53
2022-09-10T03:23:54.889Z,26.43
2022-09-10T03:24:54.900Z,26.53
2022-09-10T03:25:54.904Z,26.05
2022-09-10T03:26:54.876Z,26.37
2022-09-10T03:27:54.865Z,26.69
2022-09-10T03:28:54.849Z,26.69
2022-09-10T03:29:54.805Z,26.53
2022-09-10T03:30:54.805Z,25.89
2022-09-10T03:31:54.837Z,26.48
2022-09-10T03:32:54.788Z,26.05
2022-09-10T03:33:54.773Z,26.43
2022-09-10T03:34:54.766Z,26.00
2022-09-10T03:35:54.733Z,26.37
2022-09-10T03:36:54.729Z,25.89
2022-09-10T03:37:54.724Z,26.48
2022-09-10T03:38:54.753Z,26.48
2022-09-10T03:39:54.760Z,26.59
2022-09-10T03:40:54.671Z,26.64
2022-09-10T03:41:54.679Z,26.32
2022-09-10T03:42:54.671Z,26.37
2022-09-10T03:43:54.656Z,26.48
2022-09-10T03:44:54.630Z,26.26
2022-09-10T03:45:54.664Z,25.89
2022-09-10T03:46:54.585Z,26.53
2022-09-10T03:47:54.586Z,26.26
2022-09-10T03:48:55.507Z,26.64
2022-09-10T03:49:54.555Z,26.37
2022-09-10T03:50:54.556Z,26.59
2022-09-10T03:51:54.517Z,26.53
2022-09-10T03:52:54.508Z,26.64
2022-09-10T03:53:54.487Z,26.37
2022-09-10T03:54:54.492Z,26.53
2022-09-10T03:55:54.477Z,26.48
2022-09-10T03:56:54.459Z,26.69
2022-09-10T03:57:54.473Z,26.53
2022-09-10T03:58:54.458Z,26.53
2022-09-10T03:59:54.436Z,26.64
2022-09-10T04:00:54.462Z,26.43
2022-09-10T04:01:54.419Z,26.64
2022-09-10T04:02:54.412Z,26.64
2022-09-10T04:03:54.379Z,26.48
2022-09-10T04:04:54.364Z,25.83
2022-09-10T04:05:54.348Z,26.59
2022-09-10T04:06:54.330Z,26.64
2022-09-10T04:07:54.331Z,26.53
2022-09-10T04:08:54.316Z,25.94
2022-09-10T04:09:54.285Z,26.48
2022-09-10T04:10:54.290Z,26.26
2022-09-10T04:11:54.277Z,26.75
2022-09-10T04:12:54.247Z,26.59
2022-09-10T04:13:54.256Z,26.48
2022-09-10T04:14:54.237Z,26.64
2022-09-10T04:15:54.217Z,25.83
2022-09-10T04:16:54.214Z,26.53
2022-09-10T04:17:54.175Z,26.69
2022-09-10T04:18:54.180Z,26.43
2022-09-10T04:19:54.166Z,26.37
2022-09-10T04:20:54.174Z,26.48
2022-09-10T04:21:54.152Z,26.10
2022-09-10T04:22:54.129Z,25.89
2022-09-10T04:23:54.159Z,26.64
2022-09-10T04:24:54.121Z,26.48
2022-09-10T04:25:54.096Z,26.05
2022-09-10T04:26:54.355Z,26.53
2022-09-10T04:27:54.076Z,26.64
2022-09-10T04:28:54.056Z,25.83
2022-09-10T04:29:54.066Z,26.37
2022-09-10T04:30:54.077Z,25.83
2022-09-10T04:31:54.064Z,26.59
2022-09-10T04:32:54.031Z,26.64
2022-09-10T04:33:54.047Z,26.43
2022-09-10T04:34:53.962Z,26.37
2022-09-10T04:35:53.949Z,26.64
2022-09-10T04:36:53.980Z,26.59
2022-09-10T04:37:53.958Z,26.43
2022-09-10T04:38:53.931Z,26.59
2022-09-10T04:39:53.936Z,26.64
2022-09-10T04:40:53.926Z,26.53
2022-09-10T04:41:53.852Z,25.78
2022-09-10T04:42:53.885Z,26.00
2022-09-10T04:43:53.856Z,26.32
2022-09-10T04:44:53.840Z,26.32
2022-09-10T04:45:53.862Z,26.32
2022-09-10T04:46:53.809Z,26.64
2022-09-10T04:47:53.776Z,26.05
2022-09-10T04:48:53.767Z,26.64
2022-09-10T04:49:53.750Z,26.59
2022-09-10T04:51:14.878Z,26.48
2022-09-10T04:51:53.756Z,26.37
2022-09-10T04:52:53.713Z,26.05
2022-09-10T04:53:53.722Z,26.64
2022-09-10T04:54:53.700Z,26.37
2022-09-10T04:55:53.660Z,26.48
2022-09-10T04:56:53.676Z,26.43
2022-09-10T04:57:53.656Z,25.78
2022-09-10T04:58:53.651Z,26.37
2022-09-10T04:59:53.621Z,25.73
2022-09-10T05:00:53.687Z,26.37
2022-09-10T05:01:53.670Z,26.37
2022-09-10T05:02:53.644Z,26.53
2022-09-10T05:03:53.572Z,26.59
2022-09-10T05:04:53.564Z,26.43
2022-09-10T05:05:53.576Z,25.94
2022-09-10T05:06:53.558Z,26.37
2022-09-10T05:07:53.541Z,26.64
2022-09-10T05:08:53.531Z,26.26
2022-09-10T05:09:53.502Z,26.64
2022-09-10T05:10:53.499Z,26.53
2022-09-10T05:11:53.473Z,26.37
2022-09-10T05:12:53.503Z,26.64
2022-09-10T05:13:53.434Z,26.37
2022-09-10T05:14:53.419Z,26.48
2022-09-10T05:15:53.454Z,26.53
2022-09-10T05:16:53.419Z,26.48
2022-09-10T05:17:53.394Z,26.48
2022-09-10T05:18:53.385Z,26.48
2022-09-10T05:19:53.369Z,26.05
2022-09-10T05:20:53.338Z,26.48
2022-09-10T05:21:53.344Z,26.48
2022-09-10T05:22:53.330Z,26.37
2022-09-10T05:23:53.310Z,26.32
2022-09-10T05:24:53.327Z,26.53
2022-09-10T05:25:53.263Z,26.37
2022-09-10T05:26:53.277Z,26.69
2022-09-10T05:27:53.261Z,26.48
2022-09-10T05:28:53.249Z,26.69
2022-09-10T05:29:53.219Z,26.64
2022-09-10T05:30:53.238Z,26.48
2022-09-10T05:31:53.299Z,25.83
2022-09-10T05:32:53.193Z,25.94
2022-09-10T05:33:53.167Z,26.43
2022-09-10T05:34:53.171Z,25.94
2022-09-10T05:35:53.164Z,26.43
2022-09-10T05:36:53.127Z,26.48
2022-09-10T05:37:53.109Z,26.37
2022-09-10T05:38:53.196Z,26.43
2022-09-10T05:39:53.152Z,26.43
2022-09-10T05:40:53.108Z,26.53
2022-09-10T05:41:53.090Z,26.59
2022-09-10T05:42:53.496Z,26.48
2022-09-10T05:43:53.042Z,25.83
2022-09-10T05:44:53.031Z,26.37
2022-09-10T05:45:53.055Z,25.89
2022-09-10T05:46:53.047Z,26.43
2022-09-10T05:47:53.005Z,26.43
2022-09-10T05:48:52.974Z,26.64
2022-09-10T05:49:52.949Z,26.53
2022-09-10T05:50:52.941Z,26.43
2022-09-10T05:51:52.924Z,26.48
2022-09-10T05:52:52.947Z,26.75
2022-09-10T05:53:52.923Z,25.73
2022-09-10T05:54:52.926Z,26.37
2022-09-10T05:55:52.887Z,26.53
2022-09-10T05:56:52.875Z,25.94
2022-09-10T05:57:52.881Z,26.48
2022-09-10T05:58:52.888Z,25.89
2022-09-10T05:59:52.833Z,26.69
2022-09-10T06:00:52.827Z,26.59
2022-09-10T06:01:52.873Z,25.89
2022-09-10T06:02:52.902Z,25.83
2022-09-10T06:03:52.794Z,26.53
2022-09-10T06:04:52.819Z,26.75
2022-09-10T06:05:52.738Z,26.53
2022-09-10T06:06:52.756Z,26.37
2022-09-10T06:07:52.765Z,26.00
2022-09-10T06:08:52.736Z,26.75
2022-09-10T06:09:52.711Z,26.69
2022-09-10T06:10:52.734Z,26.59
2022-09-10T06:11:52.684Z,26.59
2022-09-10T06:12:52.681Z,26.53
2022-09-10T06:13:52.655Z,26.10
2022-09-10T06:14:52.654Z,26.59
2022-09-10T06:15:52.633Z,26.64
2022-09-10T06:16:52.641Z,25.89
2022-09-10T06:17:52.607Z,26.64
2022-09-10T06:18:52.577Z,25.89
2022-09-10T06:19:52.580Z,26.48
2022-09-10T06:20:52.598Z,26.64
2022-09-10T06:21:52.600Z,26.48
2022-09-10T06:22:54.487Z,26.64
2022-09-10T06:23:52.528Z,26.43
2022-09-10T06:24:52.499Z,26.26
2022-09-10T06:25:52.531Z,26.69
2022-09-10T06:26:53.585Z,26.80
2022-09-10T06:27:52.503Z,26.59
2022-09-10T06:28:52.563Z,25.89
2022-09-10T06:29:52.433Z,26.64
2022-09-10T06:30:52.456Z,26.53
2022-09-10T06:31:52.421Z,26.59
2022-09-10T06:32:52.426Z,26.59
2022-09-10T06:33:52.404Z,26.48
2022-09-10T06:34:52.365Z,26.69
2022-09-10T06:35:53.783Z,26.43
2022-09-10T06:36:52.377Z,26.64
2022-09-10T06:37:52.373Z,26.64
2022-09-10T06:38:52.316Z,26.05
2022-09-10T06:39:52.822Z,26.10
2022-09-10T06:40:52.331Z,26.59
2022-09-10T06:41:52.336Z,26.59
2022-09-10T06:42:52.313Z,26.05
2022-09-10T06:43:52.319Z,26.37
2022-09-10T06:44:52.283Z,26.37
2022-09-10T06:45:52.280Z,26.80
2022-09-10T06:48:52.553Z,26.37
2022-09-10T06:49:52.251Z,26.64
2022-09-10T06:50:52.170Z,26.48
2022-09-10T06:51:52.156Z,26.59
2022-09-10T06:52:52.145Z,26.75
2022-09-10T06:53:52.136Z,26.64
2022-09-10T06:54:52.133Z,26.53
2022-09-10T06:55:52.083Z,26.43
2022-09-10T06:56:52.063Z,26.53
2022-09-10T06:57:52.063Z,25.89
2022-09-10T06:58:52.085Z,26.59
2022-09-10T06:59:52.079Z,26.59
2022-09-10T07:00:52.094Z,26.69
2022-09-10T07:01:52.106Z,25.94
2022-09-10T07:02:52.022Z,26.53
2022-09-10T07:03:51.991Z,26.75
2022-09-10T07:04:51.971Z,26.75
2022-09-10T07:05:51.984Z,26.69
2022-09-10T07:06:51.964Z,26.59
2022-09-10T07:07:51.953Z,26.32
2022-09-10T07:08:51.921Z,26.53
2022-09-10T07:09:51.918Z,26.69
2022-09-10T07:10:51.901Z,26.64
2022-09-10T07:11:51.894Z,26.43
2022-09-10T07:12:51.914Z,26.48
2022-09-10T07:13:51.855Z,26.48
2022-09-10T07:14:51.838Z,26.10
2022-09-10T07:15:52.381Z,26.59
2022-09-10T07:16:51.792Z,26.53
2022-09-10T07:17:51.805Z,26.43
2022-09-10T07:18:51.789Z,26.43
2022-09-10T07:19:51.791Z,26.69
2022-09-10T07:20:51.766Z,26.48
2022-09-10T07:21:51.734Z,26.43
2022-09-10T07:22:51.733Z,26.69
2022-09-10T07:23:51.735Z,26.43
2022-09-10T07:24:51.729Z,26.69
2022-09-10T07:25:51.686Z,26.37
2022-09-10T07:26:51.683Z,26.43
2022-09-10T07:27:51.651Z,26.64
2022-09-10T07:28:51.736Z,26.48
2022-09-10T07:29:51.642Z,26.64
2022-09-10T07:30:51.653Z,26.59
2022-09-10T07:31:51.619Z,26.48
2022-09-10T07:32:51.604Z,26.75
2022-09-10T07:33:51.594Z,26.10
2022-09-10T07:34:51.569Z,26.10
2022-09-10T07:35:51.583Z,26.05
2022-09-10T07:36:51.561Z,26.48
2022-09-10T07:37:51.569Z,26.69
2022-09-10T07:38:51.544Z,26.69
2022-09-10T07:39:51.578Z,25.94
2022-09-10T07:40:51.483Z,26.53
2022-09-10T07:41:51.557Z,26.05
2022-09-10T07:42:51.455Z,26.48
2022-09-10T07:43:51.463Z,26.69
2022-09-10T07:44:51.454Z,26.53
2022-09-10T07:45:51.462Z,26.00
2022-09-10T07:46:51.408Z,26.75
2022-09-10T07:47:51.645Z,26.59
2022-09-10T07:48:51.413Z,26.05
2022-09-10T07:49:51.391Z,26.64
2022-09-10T07:50:51.347Z,26.75
2022-09-10T07:51:51.341Z,26.00
2022-09-10T07:52:51.322Z,26.53
2022-09-10T07:53:51.333Z,26.64
2022-09-10T07:54:51.404Z,26.64
2022-09-10T07:55:51.285Z,26.26
2022-09-10T07:56:51.276Z,26.69
2022-09-10T07:57:51.263Z,26.64
2022-09-10T07:58:51.274Z,26.59
2022-09-10T07:59:51.237Z,26.59
2022-09-10T08:00:51.273Z,26.26
2022-09-10T08:01:51.210Z,26.59
2022-09-10T08:02:51.203Z,26.43
2022-09-10T08:03:51.179Z,26.16
2022-09-10T08:04:51.162Z,26.75
2022-09-10T08:05:51.171Z,26.10
2022-09-10T08:06:51.170Z,26.10
2022-09-10T08:07:51.125Z,26.69
2022-09-10T08:08:51.109Z,26.59
2022-09-10T08:09:51.100Z,26.16
2022-09-10T08:10:51.127Z,26.75
2022-09-10T08:11:51.114Z,26.80
2022-09-10T08:12:51.053Z,26.80
2022-09-10T08:13:51.073Z,26.59
2022-09-10T08:14:51.062Z,26.86
2022-09-10T08:15:51.078Z,26.91
2022-09-10T08:16:51.007Z,26.80
2022-09-10T08:17:51.033Z,26.80
2022-09-10T08:18:50.981Z,26.43
2022-09-10T08:19:50.985Z,26.75
2022-09-10T08:20:50.947Z,26.48
2022-09-10T08:21:50.948Z,27.02
2022-09-10T08:22:50.969Z,26.86
2022-09-10T08:23:51.043Z,26.75
2022-09-10T08:24:50.924Z,26.86
2022-09-10T08:25:50.934Z,26.37
2022-09-10T08:26:50.900Z,26.91
2022-09-10T08:27:50.900Z,26.53
2022-09-10T08:28:50.881Z,26.96
2022-09-10T08:29:50.881Z,26.80
2022-09-10T08:30:50.898Z,26.96
2022-09-10T08:31:50.814Z,26.96
2022-09-10T08:32:50.794Z,26.80
2022-09-10T08:33:50.835Z,26.91
2022-09-10T08:34:50.802Z,26.96
2022-09-10T08:35:50.764Z,26.80
2022-09-10T08:36:50.797Z,26.96
2022-09-10T08:37:50.734Z,27.07
2022-09-10T08:38:50.760Z,26.96
2022-09-10T08:39:50.789Z,27.02
2022-09-10T08:40:50.745Z,26.96
2022-09-10T08:41:50.726Z,27.02
2022-09-10T08:42:50.681Z,27.07
2022-09-10T08:43:50.663Z,27.02
2022-09-10T08:44:50.655Z,26.96
2022-09-10T08:45:50.701Z,27.07
2022-09-10T08:46:50.618Z,26.96
2022-09-10T08:47:50.607Z,26.96
2022-09-10T08:48:50.609Z,27.07
2022-09-10T08:49:50.607Z,27.02
2022-09-10T08:50:50.606Z,27.07
2022-09-10T08:51:50.561Z,26.96
2022-09-10T08:52:50.556Z,27.02
2022-09-10T08:53:50.568Z,27.07
2022-09-10T08:54:50.543Z,27.12
2022-09-10T08:55:50.546Z,27.07
2022-09-10T08:56:50.522Z,27.07
2022-09-10T08:57:50.507Z,27.07
2022-09-10T08:58:50.501Z,27.07
2022-09-10T08:59:50.524Z,27.02
2022-09-10T09:00:50.453Z,27.02
2022-09-10T09:01:50.618Z,27.18
2022-09-10T09:02:50.503Z,27.18
2022-09-10T09:03:50.443Z,27.12
2022-09-10T09:04:50.433Z,27.07
2022-09-10T09:05:50.440Z,27.12
2022-09-10T09:06:50.432Z,27.07
2022-09-10T09:07:50.397Z,27.07
2022-09-10T09:08:50.363Z,27.02
2022-09-10T09:09:50.602Z,27.02
2022-09-10T09:10:50.337Z,27.07
2022-09-10T09:11:50.366Z,27.07
2022-09-10T09:12:50.362Z,27.02
2022-09-10T09:13:50.298Z,27.07
2022-09-10T09:14:50.297Z,27.07
2022-09-10T09:15:50.325Z,27.07
2022-09-10T09:16:50.258Z,27.07
2022-09-10T09:17:50.273Z,27.07
2022-09-10T09:18:50.264Z,27.07
2022-09-10T09:19:50.250Z,27.07
2022-09-10T09:20:50.200Z,27.02
2022-09-10T09:21:50.220Z,27.02
2022-09-10T09:22:50.192Z,27.12
2022-09-10T09:24:11.771Z,27.07
2022-09-10T09:24:50.147Z,27.12
2022-09-10T09:25:50.132Z,27.12
2022-09-10T09:26:50.112Z,27.12
2022-09-10T09:27:50.205Z,27.07
2022-09-10T09:28:50.113Z,27.07
2022-09-10T09:29:50.107Z,27.02
2022-09-10T09:30:50.090Z,27.07
2022-09-10T09:31:50.077Z,27.12
2022-09-10T09:32:50.074Z,27.12
2022-09-10T09:33:50.063Z,27.18
2022-09-10T09:34:50.013Z,27.07
2022-09-10T09:35:50.022Z,27.02
2022-09-10T09:36:50.001Z,27.07
2022-09-10T09:37:50.001Z,26.80
2022-09-10T09:38:50.058Z,26.96
2022-09-10T09:39:50.008Z,26.91
2022-09-10T09:40:49.987Z,27.07
2022-09-10T09:41:49.947Z,26.91
2022-09-10T09:42:49.933Z,27.02
2022-09-10T09:43:49.927Z,26.91
2022-09-10T09:44:52.765Z,26.96
2022-09-10T09:45:49.948Z,26.69
2022-09-10T09:46:49.888Z,26.86
2022-09-10T09:47:49.879Z,26.96
2022-09-10T09:48:49.856Z,27.02
2022-09-10T09:49:49.847Z,26.96
2022-09-10T09:50:49.850Z,27.07
2022-09-10T09:51:49.914Z,27.02
2022-09-10T09:52:49.820Z,26.96
2022-09-10T09:54:01.044Z,27.12
2022-09-10T09:55:13.388Z,27.07
2022-09-10T09:55:50.004Z,27.02
2022-09-10T09:56:49.766Z,27.12
2022-09-10T09:57:49.810Z,27.12
2022-09-10T09:58:49.807Z,27.12
2022-09-10T09:59:49.764Z,27.12
2022-09-10T10:00:49.780Z,27.07
2022-09-10T10:01:49.818Z,27.07
2022-09-10T10:02:49.693Z,27.12
2022-09-10T10:03:49.835Z,27.12
2022-09-10T10:04:49.661Z,27.07
2022-09-10T10:05:49.678Z,27.02
2022-09-10T10:06:49.618Z,27.12
2022-09-10T10:07:49.614Z,27.07
2022-09-10T10:08:49.609Z,27.12
2022-09-10T10:09:49.635Z,27.07
2022-09-10T10:10:49.565Z,27.07
2022-09-10T10:11:49.571Z,27.12
2022-09-10T10:12:49.569Z,27.07
2022-09-10T10:13:49.540Z,27.12
2022-09-10T10:14:49.512Z,27.23
2022-09-10T10:15:49.564Z,27.18
2022-09-10T10:16:49.489Z,27.18
2022-09-10T10:17:49.514Z,27.12
2022-09-10T10:18:49.484Z,27.12
2022-09-10T10:19:49.468Z,27.12
2022-09-10T10:20:49.478Z,27.12
2022-09-10T10:21:49.439Z,27.18
2022-09-10T10:22:49.472Z,27.07
2022-09-10T10:23:49.443Z,27.18
2022-09-10T10:24:49.414Z,27.18
2022-09-10T10:25:49.408Z,27.07
2022-09-10T10:26:49.452Z,27.18
2022-09-10T10:27:49.364Z,27.23
2022-09-10T10:28:49.340Z,27.07
2022-09-10T10:29:49.354Z,26.86
2022-09-10T10:30:49.394Z,26.91
2022-09-10T10:31:49.328Z,27.02
2022-09-10T10:32:49.312Z,26.96
2022-09-10T10:33:49.303Z,26.91
2022-09-10T10:34:49.284Z,26.80
2022-09-10T10:35:49.265Z,27.02
2022-09-10T10:36:49.245Z,27.02
2022-09-10T10:37:49.272Z,27.02
2022-09-10T10:38:49.219Z,26.96
2022-09-10T10:39:49.307Z,26.48
2022-09-10T10:40:49.211Z,26.96
2022-09-10T10:41:49.212Z,26.69
2022-09-10T10:42:49.164Z,27.07
2022-09-10T10:43:49.168Z,26.96
2022-09-10T10:44:49.166Z,26.96
2022-09-10T10:45:49.189Z,27.02
2022-09-10T10:46:49.117Z,26.96
2022-09-10T10:47:49.120Z,27.02
2022-09-10T10:48:49.138Z,27.07
2022-09-10T10:49:49.095Z,26.75
2022-09-10T10:50:52.790Z,27.02
2022-09-10T10:51:49.088Z,27.07
2022-09-10T10:52:49.068Z,27.02
2022-09-10T10:53:49.035Z,27.02
2022-09-10T10:54:49.069Z,27.02
2022-09-10T10:55:49.010Z,27.02
2022-09-10T10:56:49.017Z,26.96
2022-09-10T10:57:48.988Z,27.02
2022-09-10T10:58:53.451Z,27.07
2022-09-10T10:59:48.968Z,27.12
2022-09-10T11:00:48.983Z,27.07
2022-09-10T11:01:49.011Z,27.12
2022-09-10T11:02:48.925Z,27.18
2022-09-10T11:03:48.903Z,27.07
2022-09-10T11:04:48.939Z,27.12
2022-09-10T11:05:48.916Z,27.12
2022-09-10T11:06:48.917Z,27.12
2022-09-10T11:07:48.861Z,27.12
2022-09-10T11:08:48.880Z,27.18
2022-09-10T11:09:48.840Z,27.18
2022-09-10T11:10:48.852Z,27.12
2022-09-10T11:11:48.874Z,27.18
2022-09-10T11:12:48.936Z,27.12
2022-09-10T11:13:48.810Z,27.07
2022-09-10T11:14:48.783Z,27.07
2022-09-10T11:15:49.019Z,27.07
2022-09-10T11:16:49.164Z,27.07
2022-09-10T11:17:48.767Z,26.80
2022-09-10T11:18:48.737Z,27.07
2022-09-10T11:20:00.431Z,26.96
2022-09-10T11:20:48.749Z,26.96
2022-09-10T11:21:48.765Z,26.96
2022-09-10T11:22:48.697Z,26.91
2022-09-10T11:23:48.869Z,26.96
2022-09-10T11:24:49.099Z,26.91
2022-09-10T11:25:48.649Z,26.96
2022-09-10T11:26:48.667Z,26.96
2022-09-10T11:27:48.670Z,26.96
2022-09-10T11:28:48.621Z,27.02
2022-09-10T11:29:48.605Z,27.07
2022-09-10T11:30:48.787Z,26.86
2022-09-10T11:31:48.562Z,27.07
2022-09-10T11:32:48.549Z,27.07
2022-09-10T11:33:48.548Z,27.12
2022-09-10T11:34:48.591Z,27.12
2022-09-10T11:35:48.516Z,27.02
2022-09-10T11:36:48.543Z,27.07
2022-09-10T11:37:48.483Z,27.02
2022-09-10T11:38:48.494Z,27.07
2022-09-10T11:39:48.567Z,27.07
2022-09-10T11:40:48.480Z,27.02
2022-09-10T11:41:48.465Z,26.96
2022-09-10T11:42:48.426Z,26.96
2022-09-10T11:43:48.432Z,27.02
2022-09-10T11:44:48.433Z,26.91
2022-09-10T11:45:48.380Z,26.80
2022-09-10T11:46:48.420Z,26.96
2022-09-10T11:47:48.478Z,27.02
2022-09-10T11:48:48.369Z,27.02
2022-09-10T11:49:48.357Z,26.96
2022-09-10T11:50:48.366Z,27.02
2022-09-10T11:51:48.500Z,27.02
2022-09-10T11:52:48.453Z,27.07
2022-09-10T11:53:48.353Z,27.02
2022-09-10T11:54:48.354Z,27.12
2022-09-10T11:55:48.278Z,27.12
2022-09-10T11:56:48.334Z,26.96
2022-09-10T11:57:48.473Z,27.12
2022-09-10T11:58:48.334Z,27.07
2022-09-10T11:59:48.310Z,27.12
2022-09-10T12:00:48.387Z,27.12
2022-09-10T12:01:48.205Z,27.18
2022-09-10T12:02:48.208Z,27.18
2022-09-10T12:03:48.187Z,27.12
2022-09-10T12:04:48.194Z,27.12
2022-09-10T12:05:48.155Z,27.12
2022-09-10T12:06:48.153Z,27.12
2022-09-10T12:07:48.167Z,27.12
2022-09-10T12:08:48.141Z,27.07
2022-09-10T12:09:48.252Z,27.07
2022-09-10T12:10:48.277Z,27.07
2022-09-10T12:11:48.135Z,27.12
2022-09-10T12:12:48.116Z,27.07
2022-09-10T12:13:48.100Z,27.12
2022-09-10T12:14:48.050Z,27.12
2022-09-10T12:15:48.092Z,27.12
2022-09-10T12:16:48.028Z,27.18
2022-09-10T12:17:48.039Z,27.02
2022-09-10T12:18:48.010Z,27.07
2022-09-10T12:19:47.969Z,26.86
2022-09-10T12:20:47.956Z,27.07
2022-09-10T12:21:47.974Z,27.02
2022-09-10T12:22:47.941Z,26.91
2022-09-10T12:23:47.911Z,27.02
2022-09-10T12:24:47.914Z,26.91
2022-09-10T12:25:47.927Z,26.96
2022-09-10T12:26:47.883Z,26.80
2022-09-10T12:27:47.880Z,27.02
2022-09-10T12:28:47.863Z,26.86
2022-09-10T12:29:47.856Z,26.91
2022-09-10T12:30:47.877Z,26.91
2022-09-10T12:31:47.826Z,26.96
2022-09-10T12:32:47.841Z,26.91
2022-09-10T12:33:47.807Z,26.91
2022-09-10T12:34:47.780Z,26.69
2022-09-10T12:35:47.791Z,26.75
2022-09-10T12:36:47.760Z,26.86
2022-09-10T12:37:47.766Z,26.43
2022-09-10T12:38:47.750Z,26.59
2022-09-10T12:39:47.749Z,26.69
2022-09-10T12:40:47.730Z,26.86
2022-09-10T12:41:47.691Z,26.91
2022-09-10T12:42:47.677Z,26.69
2022-09-10T12:43:47.683Z,26.69
2022-09-10T12:44:47.655Z,26.48
2022-09-10T12:45:47.652Z,26.86
2022-09-10T12:46:47.625Z,26.80
2022-09-10T12:47:47.680Z,26.86
2022-09-10T12:48:47.602Z,26.80
2022-09-10T12:49:47.620Z,26.91
2022-09-10T12:50:47.574Z,26.69
2022-09-10T12:51:47.579Z,26.75
2022-09-10T12:52:47.567Z,26.91
2022-09-10T12:53:47.554Z,26.91
2022-09-10T12:54:47.524Z,26.69